Time;durP1;ratioP1;P1;durP2;ratioP2;P2;SDS_P1;SDS_P2;PMS_P1;PMS_P2;Temp;Humidity;BMP_temperature;BMP_pressure;BME280_temperature;BME280_humidity;BME280_pressure;Samples;Min_cycle;Max_cycle;Signal;HPM_P1;HPM_P2
2022/05/25 00:00:18;;;;;;;4.28;3.17;;;;;;;11.66;56.52;99342.75;1741274;82;20967;-41
2022/05/25 00:02:45;;;;;;;4.05;3.45;;;;;;;11.68;56.63;99350.52;1741628;82;21478;-41
2022/05/25 00:05:13;;;;;;;5.72;3.90;;;;;;;11.67;56.56;99342.94;1741354;82;21691;-41
2022/05/25 00:07:40;;;;;;;6.50;3.50;;;;;;;11.65;55.08;99343.89;1741515;82;21051;-41
2022/05/25 00:10:09;;;;;;;5.37;3.45;;;;;;;11.61;52.13;99345.00;1741366;82;21840;-41
2022/05/25 00:12:35;;;;;;;4.58;3.45;;;;;;;11.57;51.90;99342.20;1741101;82;20951;-41
2022/05/25 00:15:05;;;;;;;7.03;3.50;;;;;;;11.50;51.55;99343.48;1741423;82;21069;-41
2022/05/25 00:17:32;;;;;;;7.37;3.50;;;;;;;11.46;51.47;99346.72;1741597;82;21030;-41
2022/05/25 00:20:01;;;;;;;6.53;3.80;;;;;;;11.44;50.64;99345.50;1741299;82;21006;-41
2022/05/25 00:22:45;;;;;;;4.25;3.30;;;;;;;11.44;50.36;99348.22;1741735;82;21788;-41
2022/05/25 00:25:17;;;;;;;6.03;3.52;;;;;;;11.46;50.32;99354.08;1723051;82;21031;-41
2022/05/25 00:27:43;;;;;;;4.35;3.27;;;;;;;11.42;50.47;99356.75;1741534;82;21435;-41
2022/05/25 00:30:12;;;;;;;5.67;3.47;;;;;;;11.38;50.45;99351.81;1741136;82;21058;-41
2022/05/25 00:32:41;;;;;;;7.28;3.60;;;;;;;11.35;50.57;99355.27;1741389;82;21058;-41
2022/05/25 00:35:12;;;;;;;5.42;3.47;;;;;;;11.30;50.45;99361.00;1741542;82;21239;-41
2022/05/25 00:37:39;;;;;;;5.33;3.50;;;;;;;11.23;50.49;99359.55;1741201;82;20967;-41
2022/05/25 00:40:09;;;;;;;5.20;2.90;;;;;;;11.18;50.72;99361.20;1741249;82;21049;-40
2022/05/25 00:42:37;;;;;;;5.90;3.33;;;;;;;11.14;50.59;99365.77;1741346;82;21002;-41
2022/05/25 00:45:06;;;;;;;6.10;3.40;;;;;;;11.14;50.58;99358.98;1741402;82;21493;-41
2022/05/25 00:47:33;;;;;;;5.55;3.25;;;;;;;11.17;51.20;99357.70;1741341;82;21165;-41
2022/05/25 00:49:59;;;;;;;5.72;3.65;;;;;;;11.24;50.62;99366.52;1741312;82;20988;-41
2022/05/25 00:52:27;;;;;;;6.37;3.40;;;;;;;11.25;50.22;99351.23;1741123;82;21100;-41
2022/05/25 00:54:57;;;;;;;7.58;3.20;;;;;;;11.27;50.56;99354.38;1741378;82;21039;-41
2022/05/25 00:57:34;;;;;;;5.10;3.20;;;;;;;11.31;51.29;99357.14;1741378;82;21087;-41
2022/05/25 01:00:20;;;;;;;7.95;3.70;;;;;;;11.34;51.73;99360.48;1741700;82;21236;-41
2022/05/25 01:02:51;;;;;;;6.47;3.22;;;;;;;11.33;52.03;99364.33;1741260;82;21081;-41
2022/05/25 01:05:26;;;;;;;5.08;3.30;;;;;;;11.32;52.52;99367.65;1740400;82;20978;-41
2022/05/25 01:08:10;;;;;;;6.53;3.83;;;;;;;11.33;52.66;99362.98;1734635;82;21065;-41
2022/05/25 01:11:09;;;;;;;7.10;3.72;;;;;;;11.32;52.97;99364.14;1734653;82;21088;-41
2022/05/25 01:13:51;;;;;;;4.53;3.35;;;;;;;11.28;52.75;99364.07;1734679;82;21119;-41
2022/05/25 01:16:49;;;;;;;4.42;3.20;;;;;;;11.24;53.22;99364.59;1734700;82;21021;-41
2022/05/25 01:19:44;;;;;;;5.65;3.15;;;;;;;11.21;51.84;99365.89;1734471;82;21065;-41
2022/05/25 01:22:52;;;;;;;7.12;3.17;;;;;;;11.11;50.46;99359.15;1734432;82;21104;-41
2022/05/25 01:25:50;;;;;;;4.50;2.90;;;;;;;11.08;50.08;99364.52;1734579;82;21607;-41
2022/05/25 01:28:50;;;;;;;3.77;3.00;;;;;;;11.08;50.51;99357.74;1734537;82;23077;-41
2022/05/25 01:31:34;;;;;;;8.27;3.17;;;;;;;11.04;51.72;99359.59;1744368;82;21653;-41
2022/05/25 01:34:08;;;;;;;4.58;2.85;;;;;;;10.97;52.35;99361.63;1748504;82;21004;-41
2022/05/25 01:37:05;;;;;;;5.17;3.25;;;;;;;10.93;53.74;99361.36;1748386;82;21006;-41
2022/05/25 01:39:36;;;;;;;4.97;3.02;;;;;;;10.93;53.85;99362.14;1748319;82;21072;-41
2022/05/25 01:42:12;;;;;;;4.47;3.10;;;;;;;10.92;54.05;99370.06;1748617;82;21193;-41
2022/05/25 01:44:43;;;;;;;5.40;3.55;;;;;;;10.93;53.77;99365.42;1747298;82;21013;-41
2022/05/25 01:47:10;;;;;;;4.60;3.27;;;;;;;10.86;52.80;99372.85;1748770;82;21582;-41
2022/05/25 01:50:02;;;;;;;4.50;3.10;;;;;;;10.84;53.43;99378.63;1748271;82;21531;-41
2022/05/25 01:52:33;;;;;;;5.30;3.12;;;;;;;10.83;52.82;99377.08;1748466;82;21020;-41
2022/05/25 01:55:05;;;;;;;4.78;3.37;;;;;;;10.79;52.99;99384.37;1748516;82;21238;-41
2022/05/25 01:57:36;;;;;;;6.65;3.55;;;;;;;10.80;53.21;99374.28;1748477;82;20930;-41
2022/05/25 02:00:06;;;;;;;5.58;3.22;;;;;;;10.81;53.82;99382.07;1748768;82;20918;-41
2022/05/25 02:05:19;;;;;;;4.75;3.50;;;;;;;10.77;53.57;99377.16;1748784;82;21546;-41
2022/05/25 02:08:14;;;;;;;6.20;3.50;;;;;;;10.73;53.76;99389.88;1748467;82;23129;-41
2022/05/25 02:11:23;;;;;;;5.47;3.62;;;;;;;10.71;54.17;99385.37;1748278;82;20977;-41
2022/05/25 02:14:05;;;;;;;4.62;3.12;;;;;;;10.68;54.59;99387.45;1748645;82;20961;-41
2022/05/25 02:16:55;;;;;;;5.67;3.02;;;;;;;10.63;54.71;99385.03;1748354;82;21072;-40
2022/05/25 02:19:30;;;;;;;6.53;3.25;;;;;;;10.62;54.27;99390.80;1748727;81;21020;-40
2022/05/25 02:22:19;;;;;;;6.50;3.02;;;;;;;10.62;53.23;99392.95;1748442;82;20958;-40
2022/05/25 02:24:55;;;;;;;6.55;3.10;;;;;;;10.64;53.38;99392.59;1747556;82;21032;-40
2022/05/25 02:27:41;;;;;;;5.60;3.15;;;;;;;10.67;53.78;99395.38;1748525;82;21028;-40
2022/05/25 02:30:16;;;;;;;8.03;3.12;;;;;;;10.69;54.21;99402.59;1748937;82;21021;-41
2022/05/25 02:32:48;;;;;;;3.87;2.77;;;;;;;10.70;54.70;99397.35;1748524;81;21096;-40
2022/05/25 02:35:15;;;;;;;6.35;3.15;;;;;;;10.72;54.99;99396.44;1748773;82;22367;-40
2022/05/25 02:37:43;;;;;;;5.97;3.45;;;;;;;10.74;55.10;99401.50;1726068;82;21598;-40
2022/05/25 02:40:11;;;;;;;6.05;3.10;;;;;;;10.74;54.86;99402.30;1718643;83;20892;-40
2022/05/25 02:42:40;;;;;;;5.22;3.30;;;;;;;10.77;55.22;99405.63;1692119;83;22166;-40
2022/05/25 02:45:10;;;;;;;;;;;;;;;10.80;55.66;99413.04;1721617;82;20964;-40
2022/05/25 02:47:39;;;;;;;4.80;3.27;;;;;;;10.84;56.12;99413.13;1718614;83;20195;-40
2022/05/25 02:50:07;;;;;;;5.03;3.00;;;;;;;10.76;56.83;99414.91;1718504;83;22123;-40
2022/05/25 02:52:35;;;;;;;4.92;3.37;;;;;;;10.81;57.00;99413.26;1718659;83;20988;-41
2022/05/25 02:55:04;;;;;;;3.85;3.00;;;;;;;10.88;56.88;99420.19;1718633;83;21043;-41
2022/05/25 02:57:32;;;;;;;3.95;2.83;;;;;;;10.92;56.70;99409.96;1718805;83;21091;-41
2022/05/25 02:59:58;;;;;;;4.45;2.75;;;;;;;10.98;56.65;99419.38;1719173;83;21178;-41
2022/05/25 03:02:25;;;;;;;6.58;2.83;;;;;;;11.03;56.55;99417.73;1718901;83;20979;-41
2022/05/25 03:04:52;;;;;;;4.92;2.90;;;;;;;11.08;56.04;99418.78;1718832;83;20971;-41
2022/05/25 03:07:19;;;;;;;5.55;3.10;;;;;;;11.12;55.95;99412.27;1718798;83;21585;-41
2022/05/25 03:09:46;;;;;;;4.10;3.02;;;;;;;11.16;56.06;99413.69;1718648;83;21039;-41
2022/05/25 03:12:13;;;;;;;3.45;2.90;;;;;;;11.20;56.36;99409.88;1718764;83;23206;-41
2022/05/25 03:14:41;;;;;;;5.95;3.17;;;;;;;11.26;56.57;99411.73;1718705;83;21030;-41
2022/05/25 03:17:12;;;;;;;4.03;3.22;;;;;;;11.31;56.36;99412.22;1719048;83;21010;-41
2022/05/25 03:19:44;;;;;;;7.58;3.33;;;;;;;11.35;56.33;99412.27;1718819;83;21032;-41
2022/05/25 03:22:10;;;;;;;6.47;3.08;;;;;;;11.40;55.87;99410.60;1692694;83;21043;-41
2022/05/25 03:24:37;;;;;;;4.55;2.92;;;;;;;11.47;55.35;99414.02;1718857;83;21146;-41
2022/05/25 03:27:04;;;;;;;5.47;3.37;;;;;;;11.53;55.38;99420.11;1718876;83;21525;-41
2022/05/25 03:29:32;;;;;;;3.83;2.87;;;;;;;11.60;55.75;99417.52;1718769;83;21046;-41
2022/05/25 03:31:59;;;;;;;4.12;2.80;;;;;;;11.66;56.03;99416.07;1718721;83;21099;-41
2022/05/25 03:34:27;;;;;;;4.37;2.70;;;;;;;11.74;56.14;99421.84;1718869;83;21083;-41
2022/05/25 03:36:58;;;;;;;5.15;3.20;;;;;;;11.80;55.91;99413.38;1718726;83;21056;-41
2022/05/25 03:39:24;;;;;;;7.97;2.70;;;;;;;11.86;55.87;99418.72;1718166;83;21019;-41
2022/05/25 03:42:05;;;;;;;4.22;2.92;;;;;;;11.91;54.67;99413.73;1718632;83;21031;-41
2022/05/25 03:44:32;;;;;;;3.80;2.55;;;;;;;11.99;54.20;99415.98;1718613;83;21019;-41
2022/05/25 03:47:00;;;;;;;3.70;2.33;;;;;;;12.09;54.30;99419.42;1718514;83;21039;-41
2022/05/25 03:49:26;;;;;;;4.40;3.00;;;;;;;12.18;54.31;99423.44;1718643;83;21252;-41
2022/05/25 03:51:54;;;;;;;4.40;2.52;;;;;;;12.29;53.79;99429.02;1718724;83;21859;-41
2022/05/25 03:54:20;;;;;;;3.98;2.67;;;;;;;12.41;52.67;99427.98;1718589;83;21519;-42
2022/05/25 03:56:47;;;;;;;4.50;3.12;;;;;;;12.55;51.92;99434.95;1718672;83;20948;-41
2022/05/25 03:59:14;;;;;;;6.50;2.87;;;;;;;12.67;50.53;99434.73;1718653;83;21528;-41
2022/05/25 04:01:41;;;;;;;3.52;2.45;;;;;;;12.80;50.05;99436.61;1718811;83;23176;-42
2022/05/25 04:04:07;;;;;;;3.75;2.62;;;;;;;12.95;49.70;99438.33;1718748;83;20920;-41
2022/05/25 04:06:34;;;;;;;4.08;2.35;;;;;;;13.10;48.67;99440.62;1718696;83;21016;-41
2022/05/25 04:09:01;;;;;;;3.35;2.40;;;;;;;13.24;49.09;99447.59;1718537;83;21633;-42
2022/05/25 04:11:28;;;;;;;4.28;2.42;;;;;;;13.37;49.35;99450.23;1718791;83;21597;-41
2022/05/25 04:13:56;;;;;;;6.08;2.90;;;;;;;13.50;49.25;99448.81;1718690;83;21128;-41
2022/05/25 04:16:23;;;;;;;3.55;2.52;;;;;;;13.63;48.81;99452.80;1718469;83;20975;-41
2022/05/25 04:18:50;;;;;;;3.80;2.67;;;;;;;13.75;47.59;99447.05;1718668;83;20968;-41
2022/05/25 04:21:16;;;;;;;4.95;2.90;;;;;;;13.89;46.74;99453.20;1719011;83;21581;-42
2022/05/25 04:23:44;;;;;;;2.98;2.47;;;;;;;14.01;46.23;99448.79;1718576;83;21031;-42
2022/05/25 04:26:10;;;;;;;6.70;2.92;;;;;;;14.11;45.89;99448.08;1718843;83;21154;-41
2022/05/25 04:28:37;;;;;;;4.80;2.58;;;;;;;14.24;45.61;99449.89;1718764;83;20948;-42
2022/05/25 04:31:04;;;;;;;5.62;2.52;;;;;;;14.34;45.38;99455.41;1715377;83;20984;-42
2022/05/25 04:33:31;;;;;;;4.10;2.77;;;;;;;14.44;45.01;99450.41;1703037;84;21088;-42
2022/05/25 04:35:58;;;;;;;4.12;2.37;;;;;;;14.54;44.99;99461.38;1703188;84;21523;-42
2022/05/25 04:38:27;;;;;;;5.20;2.70;;;;;;;14.65;44.59;99455.97;1702932;84;21231;-42
2022/05/25 04:40:55;;;;;;;3.83;2.40;;;;;;;14.74;44.20;99457.17;1702947;84;20988;-42
2022/05/25 04:43:23;;;;;;;6.97;2.67;;;;;;;14.85;43.93;99459.95;1702899;84;21086;-42
2022/05/25 04:45:51;;;;;;;3.67;2.50;;;;;;;14.93;43.65;99461.52;1702826;84;21020;-42
2022/05/25 04:48:21;;;;;;;4.45;2.40;;;;;;;15.01;43.56;99463.09;1703145;84;21047;-42
2022/05/25 04:50:47;;;;;;;4.23;2.70;;;;;;;15.09;43.76;99466.06;1703055;84;21226;-42
2022/05/25 04:53:18;;;;;;;6.70;2.80;;;;;;;15.19;43.53;99464.52;1702738;84;20988;-42
2022/05/25 04:58:35;;;;;;;5.28;2.70;;;;;;;15.33;42.24;99469.22;1702829;84;20972;-42
2022/05/25 05:01:03;;;;;;;6.35;2.42;;;;;;;15.39;42.51;99475.87;1703130;84;21060;-42
2022/05/25 05:03:29;;;;;;;5.33;2.83;;;;;;;15.48;42.47;99466.70;1702820;84;21941;-42
2022/05/25 05:05:58;;;;;;;3.95;2.60;;;;;;;15.57;41.51;99465.17;1702864;84;20952;-42
2022/05/25 05:08:25;;;;;;;3.10;2.33;;;;;;;15.68;41.76;99470.66;1703031;84;21040;-42
2022/05/25 05:10:53;;;;;;;3.62;2.42;;;;;;;15.77;41.78;99471.03;1702953;84;21092;-42
2022/05/25 05:13:20;;;;;;;3.12;2.75;;;;;;;15.88;41.05;99468.27;1703091;84;21033;-42
2022/05/25 05:15:50;;;;;;;5.12;2.60;;;;;;;15.97;41.76;99465.95;1703138;84;22218;-42
2022/05/25 05:18:18;;;;;;;4.47;2.42;;;;;;;16.07;41.68;99465.91;1703021;84;21052;-42
2022/05/25 05:20:59;;;;;;;3.62;2.67;;;;;;;16.19;41.37;99470.78;1677492;84;21499;-42
2022/05/25 05:23:26;;;;;;;6.00;2.77;;;;;;;16.31;42.12;99465.69;1702651;84;21574;-42
2022/05/25 05:25:53;;;;;;;4.85;2.50;;;;;;;16.43;41.29;99464.46;1702689;84;21527;-42
2022/05/25 05:28:25;;;;;;;3.62;2.65;;;;;;;16.56;39.53;99463.43;1703002;84;20929;-42
2022/05/25 05:30:54;;;;;;;6.20;2.47;;;;;;;16.64;39.83;99461.69;1702577;84;21032;-42
2022/05/25 05:33:22;;;;;;;5.50;2.75;;;;;;;16.75;38.63;99462.41;1698292;84;20986;-42
2022/05/25 05:35:57;;;;;;;4.55;2.75;;;;;;;16.86;38.33;99463.14;1698165;84;21098;-42
2022/05/25 05:38:24;;;;;;;4.05;2.55;;;;;;;16.95;38.06;99462.70;1696598;84;21046;-42
2022/05/25 05:40:52;;;;;;;6.17;2.60;;;;;;;17.06;38.05;99463.44;1698175;84;21201;-42
2022/05/25 05:43:19;;;;;;;2.92;2.42;;;;;;;17.17;38.08;99464.75;1698340;84;20978;-42
2022/05/25 05:46:42;;;;;;;5.10;2.33;;;;;;;17.36;37.31;99465.59;1796669;79;22581;-41
2022/05/25 05:49:09;;;;;;;4.40;2.30;;;;;;;17.43;36.78;99467.52;1756619;81;20972;-41
2022/05/25 05:51:38;;;;;;;4.00;2.50;;;;;;;17.53;36.73;99466.64;1756554;81;20969;-42
2022/05/25 05:54:05;;;;;;;3.83;2.52;;;;;;;17.62;36.82;99464.27;1748745;81;21527;-41
2022/05/25 05:56:32;;;;;;;4.35;2.77;;;;;;;17.71;37.01;99459.88;1748516;82;20969;-41
2022/05/25 05:59:00;;;;;;;4.28;2.37;;;;;;;17.84;37.51;99467.02;1748521;81;21546;-42
2022/05/25 06:01:27;;;;;;;3.42;2.50;;;;;;;17.96;37.16;99469.23;1748517;82;20984;-42
2022/05/25 06:03:55;;;;;;;3.05;2.50;;;;;;;18.07;36.52;99472.67;1748645;82;21225;-42
2022/05/25 06:06:23;;;;;;;2.95;2.12;;;;;;;18.20;36.28;99471.58;1748431;82;20929;-41
2022/05/25 06:08:50;;;;;;;5.00;2.47;;;;;;;18.34;35.86;99469.28;1748703;82;20966;-42
2022/05/25 06:11:18;;;;;;;3.37;2.08;;;;;;;18.46;34.03;99472.85;1748123;82;21021;-42
2022/05/25 06:13:44;;;;;;;3.85;2.37;;;;;;;18.56;34.33;99471.39;1748256;82;21033;-42
2022/05/25 06:21:41;;;;;;;3.20;2.12;;;;;;;18.65;33.17;99424.98;1748172;82;21017;-42
2022/05/25 06:24:08;;;;;;;3.58;2.30;;;;;;;19.03;31.77;99476.48;1748262;82;20988;-42
2022/05/25 06:26:36;;;;;;;3.83;2.30;;;;;;;19.13;31.84;99476.75;1748094;82;21053;-42
2022/05/25 06:29:04;;;;;;;2.87;2.23;;;;;;;19.23;30.91;99472.48;1748634;81;21218;-42
2022/05/25 06:31:32;;;;;;;3.35;2.25;;;;;;;19.32;30.22;99472.73;1748173;82;21235;-42
2022/05/25 06:33:58;;;;;;;6.10;2.20;;;;;;;19.40;30.38;99479.70;1748582;82;21559;-42
2022/05/25 06:36:28;;;;;;;4.83;2.22;;;;;;;19.50;29.95;99477.42;1743784;82;20977;-41
2022/05/25 06:38:55;;;;;;;3.22;2.00;;;;;;;19.62;30.67;99478.02;1748621;82;21076;-42
2022/05/25 06:41:22;;;;;;;2.72;2.15;;;;;;;19.75;30.81;99477.63;1748428;82;21150;-42
2022/05/25 06:43:49;;;;;;;5.92;2.37;;;;;;;19.87;31.14;99473.67;1748103;82;21525;-42
2022/05/25 06:46:19;;;;;;;2.33;1.95;;;;;;;20.00;31.22;99471.08;1748639;82;21004;-42
2022/05/25 06:48:47;;;;;;;3.92;2.30;;;;;;;20.16;30.85;99467.06;1749324;82;21088;-42
2022/05/25 06:51:21;;;;;;;2.47;2.00;;;;;;;20.30;29.67;99472.91;1749087;82;21574;-42
2022/05/25 06:53:50;;;;;;;2.72;1.82;;;;;;;20.43;29.57;99479.98;1749415;82;21080;-42
2022/05/25 06:56:20;;;;;;;4.45;2.02;;;;;;;20.51;28.99;99480.80;1749124;82;21004;-42
2022/05/25 06:58:47;;;;;;;2.50;1.80;;;;;;;20.60;29.55;99473.34;1748658;82;20941;-42
2022/05/25 07:01:14;;;;;;;2.45;1.75;;;;;;;20.73;29.89;99474.25;1748667;82;21041;-42
2022/05/25 07:03:40;;;;;;;3.30;1.75;;;;;;;20.85;29.04;99474.99;1748767;82;20982;-42
2022/05/25 07:06:09;;;;;;;4.33;1.90;;;;;;;20.96;28.67;99476.90;1748639;82;21140;-43
2022/05/25 07:08:37;;;;;;;2.08;1.85;;;;;;;21.08;28.78;99477.64;1748494;82;21031;-42
2022/05/25 07:11:04;;;;;;;2.67;1.80;;;;;;;21.19;27.72;99477.44;1748420;82;20957;-42
2022/05/25 07:13:30;;;;;;;2.45;1.80;;;;;;;21.29;27.29;99473.67;1748332;82;20941;-42
2022/05/25 07:16:02;;;;;;;1.95;1.45;;;;;;;21.41;27.37;99474.36;1748444;82;21095;-42
2022/05/25 07:18:29;;;;;;;5.28;2.00;;;;;;;21.48;26.79;99467.31;1729777;82;21811;-42
2022/05/25 07:21:01;;;;;;;4.33;1.98;;;;;;;21.55;26.85;99467.72;1718632;83;21530;-42
2022/05/25 07:23:28;;;;;;;1.75;1.57;;;;;;;21.67;27.74;99480.25;1719055;83;21069;-42
2022/05/25 07:25:55;;;;;;;4.15;1.90;;;;;;;21.83;27.58;99475.33;1718401;83;20981;-42
2022/05/25 07:28:21;;;;;;;6.00;2.00;;;;;;;21.93;26.68;99477.05;1718621;83;21033;-42
2022/05/25 07:30:50;;;;;;;9.93;2.30;;;;;;;22.01;26.90;99483.97;1718657;83;22025;-42
2022/05/25 07:33:17;;;;;;;5.45;1.80;;;;;;;22.08;26.34;99487.12;1718672;83;21539;-42
2022/05/25 07:35:43;;;;;;;9.73;2.10;;;;;;;22.09;26.39;99481.78;1713479;83;21028;-42
2022/05/25 07:38:10;;;;;;;5.12;1.80;;;;;;;22.05;26.66;99473.59;1718789;83;21543;-42
2022/05/25 07:40:39;;;;;;;2.12;1.57;;;;;;;21.98;25.70;99482.05;1718667;83;21033;-42
2022/05/25 07:43:20;;;;;;;1.72;1.50;;;;;;;21.95;26.20;99485.69;1692364;83;21130;-42
2022/05/25 07:45:45;;;;;;;2.50;1.57;;;;;;;21.89;26.17;99483.84;1717896;83;21048;-42
2022/05/25 07:48:12;;;;;;;2.42;1.70;;;;;;;21.83;25.92;99484.99;1716001;82;21044;-42
2022/05/25 07:50:41;;;;;;;5.28;2.33;;;;;;;21.85;25.35;99479.80;1718788;83;20925;-42
2022/05/25 07:53:55;;;;;;;6.90;1.95;;;;;;;21.94;26.04;99478.61;1718967;83;21489;-42
2022/05/25 07:55:36;;;;;;;3.10;1.80;;;;;;;22.04;25.68;99481.70;1714910;83;21148;-42
2022/05/25 07:58:04;;;;;;;4.03;1.98;;;;;;;22.10;25.16;99481.36;1718959;83;20933;-42
2022/05/25 08:00:34;;;;;;;4.00;1.70;;;;;;;22.17;25.58;99476.86;1718711;83;21077;-42
2022/05/25 08:05:49;;;;;;;2.33;2.05;;;;;;;22.29;25.69;99482.44;1718672;83;21032;-42
2022/05/25 08:08:22;;;;;;;3.47;1.67;;;;;;;22.43;25.80;99475.74;1714012;83;21121;-42
2022/05/25 08:10:52;;;;;;;4.50;1.80;;;;;;;22.65;25.36;99470.41;1718383;83;21578;-42
2022/05/25 08:13:19;;;;;;;2.12;1.80;;;;;;;22.89;25.49;99473.09;1718823;83;20960;-42
2022/05/25 08:15:46;;;;;;;2.70;1.80;;;;;;;23.14;25.78;99469.59;1718505;83;21610;-42
2022/05/25 08:18:15;;;;;;;3.75;1.87;;;;;;;23.28;24.51;99465.78;1718685;83;21029;-42
2022/05/25 08:20:43;;;;;;;2.77;1.85;;;;;;;23.37;25.17;99473.41;1718663;83;21136;-42
2022/05/25 08:23:12;;;;;;;1.77;1.60;;;;;;;23.46;23.78;99476.31;1718557;83;21016;-42
2022/05/25 08:25:40;;;;;;;2.70;1.60;;;;;;;23.48;24.26;99478.64;1718496;83;21145;-42
2022/05/25 08:28:06;;;;;;;3.20;1.77;;;;;;;23.49;24.46;99472.64;1718904;83;20966;-42
2022/05/25 08:30:35;;;;;;;2.92;2.00;;;;;;;23.46;24.24;99474.15;1718751;83;21047;-42
2022/05/25 08:33:02;;;;;;;3.10;1.60;;;;;;;23.29;24.21;99474.83;1718987;83;21838;-42
2022/05/25 08:35:30;;;;;;;3.87;2.10;;;;;;;23.08;24.83;99478.27;1718626;83;21001;-42
2022/05/25 08:37:58;;;;;;;2.85;1.90;;;;;;;22.90;24.69;99478.16;1718693;83;20973;-42
2022/05/25 08:40:26;;;;;;;2.67;1.80;;;;;;;22.79;24.82;99484.63;1718969;83;21005;-42
2022/05/25 08:43:08;;;;;;;2.15;1.72;;;;;;;22.70;24.18;99482.31;1719084;83;21026;-42
2022/05/25 08:45:40;;;;;;;5.10;1.62;;;;;;;22.65;24.72;99475.94;1716768;83;22018;-42
2022/05/25 08:48:08;;;;;;;2.70;1.80;;;;;;;22.70;23.62;99480.36;1705088;84;21078;-42
2022/05/25 08:50:36;;;;;;;3.37;1.70;;;;;;;22.82;24.16;99471.30;1705054;84;20990;-42
2022/05/25 08:53:04;;;;;;;4.17;1.77;;;;;;;22.98;23.63;99487.65;1704914;84;21054;-42
2022/05/25 08:55:53;;;;;;;3.40;1.70;;;;;;;22.96;23.32;99488.86;1704917;84;21018;-42
2022/05/25 08:58:20;;;;;;;2.65;1.60;;;;;;;22.86;22.64;99480.27;1705263;84;21304;-42
2022/05/25 09:00:46;;;;;;;3.67;2.15;;;;;;;22.75;22.71;99474.26;1704993;84;21012;-42
2022/05/25 09:03:28;;;;;;;2.58;1.80;;;;;;;22.74;23.05;99477.48;1705077;84;20958;-42
2022/05/25 09:06:18;;;;;;;4.75;1.80;;;;;;;22.79;24.16;99468.05;1705051;84;21088;-42
2022/05/25 09:09:05;;;;;;;2.98;1.62;;;;;;;22.90;23.65;99465.72;1704590;84;21049;-42
2022/05/25 09:11:52;;;;;;;4.37;1.80;;;;;;;23.00;23.01;99473.53;1697546;84;21496;-42
2022/05/25 09:14:37;;;;;;;2.12;1.60;;;;;;;23.07;23.35;99463.66;1704973;84;21021;-42
2022/05/25 09:17:08;;;;;;;18.62;3.10;;;;;;;23.22;23.38;99466.77;1705103;84;21563;-42
2022/05/25 09:19:38;;;;;;;4.25;2.02;;;;;;;23.33;22.01;99467.22;1705335;84;21025;-42
2022/05/25 09:22:10;;;;;;;2.87;1.57;;;;;;;23.14;23.23;99421.19;1705652;83;20938;-42
2022/05/25 09:24:38;;;;;;;3.22;1.67;;;;;;;23.57;22.87;99460.15;1705201;84;20895;-42
2022/05/25 09:27:06;;;;;;;2.02;1.72;;;;;;;23.72;22.81;99450.13;1705234;84;21508;-42
2022/05/25 09:29:32;;;;;;;4.53;1.50;;;;;;;23.85;23.14;99454.88;1705095;84;20950;-42
2022/05/25 09:32:08;;;;;;;1.92;1.70;;;;;;;23.96;23.48;99453.92;1705100;84;21036;-42
2022/05/25 09:35:06;;;;;;;2.27;1.67;;;;;;;24.03;22.30;99450.89;1704834;83;20973;-42
2022/05/25 09:37:56;;;;;;;2.77;1.97;;;;;;;24.19;22.68;99454.92;1705214;84;20965;-42
2022/05/25 09:40:34;;;;;;;3.47;2.10;;;;;;;24.29;22.34;99441.91;1705316;84;21121;-42
2022/05/25 09:43:05;;;;;;;3.35;1.85;;;;;;;24.35;21.21;99437.34;1705146;83;21025;-42
2022/05/25 09:45:46;;;;;;;2.25;1.62;;;;;;;24.33;21.46;99439.78;1705291;84;21057;-42
2022/05/25 09:48:32;;;;;;;5.37;1.87;;;;;;;24.36;22.06;99431.34;1705282;84;21014;-42
2022/05/25 09:51:22;;;;;;;2.65;1.70;;;;;;;24.51;22.53;99425.44;1705195;84;21223;-42
2022/05/25 09:53:56;;;;;;;;;;;;;;;24.77;21.39;99420.52;1707581;84;21026;-42
2022/05/25 09:56:53;;;;;;;4.67;1.98;;;;;;;24.96;20.18;99417.25;1704741;84;20106;-42
2022/05/25 09:59:38;;;;;;;4.42;1.70;;;;;;;24.85;20.89;99430.72;1705154;84;21046;-42
2022/05/25 10:02:27;;;;;;;2.33;1.60;;;;;;;24.79;21.24;99433.91;1705044;84;21105;-42
2022/05/25 10:04:55;;;;;;;2.60;1.67;;;;;;;24.74;22.00;99440.81;1705344;84;21239;-42
2022/05/25 10:07:34;;;;;;;3.52;2.05;;;;;;;24.63;21.58;99434.92;1705208;84;20941;-42
2022/05/25 10:10:06;;;;;;;5.00;1.62;;;;;;;24.48;20.89;99426.96;1705266;84;21908;-42
2022/05/25 10:12:41;;;;;;;5.20;1.90;;;;;;;24.26;21.05;99435.26;1705323;84;21101;-43
2022/05/25 10:15:14;;;;;;;4.78;1.67;;;;;;;24.06;21.15;99431.38;1705128;84;21085;-43
2022/05/25 10:17:46;;;;;;;4.00;1.50;;;;;;;23.91;21.71;99432.34;1705265;84;21757;-42
2022/05/25 10:20:44;;;;;;;3.35;1.82;;;;;;;23.82;21.88;99434.39;1704925;84;20993;-42
2022/05/25 10:23:25;;;;;;;2.20;1.65;;;;;;;23.74;21.77;99432.48;1704946;84;21013;-42
2022/05/25 10:26:18;;;;;;;2.15;1.62;;;;;;;23.78;21.88;99435.13;1705005;84;21547;-42
2022/05/25 10:29:00;;;;;;;3.22;1.65;;;;;;;23.99;21.30;99433.62;1705205;84;21046;-42
2022/05/25 10:37:18;;;;;;;2.60;1.82;;;;;;;24.97;21.05;99398.00;1705191;84;21069;-42
2022/05/25 10:39:58;;;;;;;2.67;1.72;;;;;;;25.24;20.98;99404.25;1705206;84;20994;-42
2022/05/25 10:42:32;;;;;;;3.33;1.77;;;;;;;25.38;20.56;99396.12;1704490;83;21021;-42
2022/05/25 10:45:13;;;;;;;3.45;1.82;;;;;;;25.47;20.86;99403.08;1704021;83;21113;-42
2022/05/25 10:48:07;;;;;;;3.47;1.70;;;;;;;25.66;20.85;99405.95;1714668;82;21072;-42
2022/05/25 10:50:42;;;;;;;3.35;1.80;;;;;;;25.90;20.02;99403.47;1718518;82;20972;-42
2022/05/25 10:53:32;;;;;;;2.62;1.80;;;;;;;26.00;19.99;99391.00;1718663;83;21617;-42
2022/05/25 10:56:41;;;;;;;3.37;1.70;;;;;;;25.80;19.41;99358.88;1718794;83;21052;-43
2022/05/25 10:59:36;;;;;;;3.22;1.65;;;;;;;25.98;19.55;99396.23;1719044;83;21214;-43
2022/05/25 11:02:29;;;;;;;1.57;1.37;;;;;;;25.94;19.94;99393.63;1718613;83;21508;-43
2022/05/25 11:05:16;;;;;;;4.87;1.87;;;;;;;25.98;19.62;99383.73;1718683;83;21041;-42
2022/05/25 11:07:44;;;;;;;2.37;1.40;;;;;;;26.15;20.00;99391.89;1719239;82;21019;-42
2022/05/25 11:10:59;;;;;;;3.80;1.67;;;;;;;26.41;19.12;99388.20;1719164;83;21078;-42
2022/05/25 11:13:51;;;;;;;3.83;1.32;;;;;;;26.54;18.83;99402.06;1719343;83;21842;-42
2022/05/25 11:16:44;;;;;;;4.92;2.00;;;;;;;26.66;19.74;99385.05;1719208;83;21035;-42
2022/05/25 11:19:22;;;;;;;4.03;1.40;;;;;;;26.89;19.22;99385.77;1719256;83;21022;-42
2022/05/25 11:22:09;;;;;;;5.33;1.65;;;;;;;26.87;18.63;99386.11;1719190;83;21086;-42
2022/05/25 11:25:12;;;;;;;4.62;1.65;;;;;;;26.72;18.75;99383.19;1719086;83;21027;-42
2022/05/25 11:28:03;;;;;;;3.95;2.05;;;;;;;26.46;18.41;99389.73;1719323;83;21094;-43
2022/05/25 11:30:39;;;;;;;4.75;1.55;;;;;;;26.09;18.74;99387.60;1719359;83;21012;-42
2022/05/25 11:33:51;;;;;;;4.62;1.90;;;;;;;25.76;19.12;99386.64;1719194;83;21023;-42
2022/05/25 11:36:55;;;;;;;3.17;1.60;;;;;;;25.52;20.00;99385.05;1719372;83;21537;-42
2022/05/25 11:39:53;;;;;;;4.35;1.85;;;;;;;25.31;20.10;99376.23;1657336;86;21616;-42
2022/05/25 11:42:46;;;;;;;3.40;2.00;;;;;;;25.18;20.81;99375.55;1711671;83;23158;-42
2022/05/25 11:45:33;;;;;;;2.70;1.87;;;;;;;25.30;20.95;99369.91;1719125;83;20896;-42
2022/05/25 11:48:16;;;;;;;4.33;1.52;;;;;;;25.52;20.69;99365.61;1699637;83;21622;-42
2022/05/25 11:51:08;;;;;;;3.58;1.72;;;;;;;25.64;20.23;99359.81;1690675;84;21583;-42
2022/05/25 11:53:56;;;;;;;3.75;1.80;;;;;;;25.64;20.94;99361.97;1690889;84;21085;-42
2022/05/25 11:56:44;;;;;;;10.88;2.17;;;;;;;25.71;19.93;99355.32;1690765;84;21860;-42
2022/05/25 11:59:48;;;;;;;2.52;2.00;;;;;;;25.72;20.95;99355.48;1690845;84;21108;-42
2022/05/25 12:02:46;;;;;;;2.67;1.60;;;;;;;25.70;20.83;99349.64;1690701;84;20957;-42
2022/05/25 12:05:31;;;;;;;2.35;1.70;;;;;;;25.60;20.48;99349.47;1691014;84;21032;-43
2022/05/25 12:08:13;;;;;;;3.47;1.87;;;;;;;25.37;20.39;99341.06;1690967;84;21014;-43
2022/05/25 12:10:42;;;;;;;6.53;2.10;;;;;;;25.22;20.67;99337.36;1690680;84;21134;-43
2022/05/25 12:13:33;;;;;;;2.40;1.92;;;;;;;25.14;21.40;99336.09;1690898;84;21060;-43
2022/05/25 12:16:17;;;;;;;4.15;1.62;;;;;;;25.14;21.19;99339.64;1664584;85;21000;-43
2022/05/25 12:19:05;;;;;;;2.52;1.80;;;;;;;25.13;21.65;99333.92;1685301;84;21666;-43
2022/05/25 12:21:55;;;;;;;3.62;1.60;;;;;;;25.25;22.27;99335.82;1690675;84;21523;-43
2022/05/25 12:24:36;;;;;;;2.08;1.60;;;;;;;25.42;21.64;99333.52;1690645;84;21245;-43
2022/05/25 12:27:06;;;;;;;2.52;1.75;;;;;;;25.50;20.97;99328.61;1690688;84;21510;-42